Time;durP1;ratioP1;P1;durP2;ratioP2;P2;SDS_P1;SDS_P2;PMS_P1;PMS_P2;Temp;Humidity;BMP_temperature;BMP_pressure;BME280_temperature;BME280_humidity;BME280_pressure;Samples;Min_cycle;Max_cycle;Signal;HPM_P1;HPM_P2
2022/05/06 00:01:09;;;;;;;6.37;4.00;;;;;;;;;;5034323;28;20199;-73
2022/05/06 00:03:39;;;;;;;8.23;4.33;;;;;;;;;;5025452;28;20239;-73
2022/05/06 00:06:07;;;;;;;8.67;4.50;;;;;;;;;;5013706;28;20736;-72
2022/05/06 00:08:36;;;;;;;5.93;4.77;;;;;;;;;;5018722;28;20576;-73
2022/05/06 00:11:04;;;;;;;6.03;3.77;;;;;;;;;;5033024;28;20282;-73
2022/05/06 00:13:33;;;;;;;5.87;3.60;;;;;;;;;;5031249;28;20596;-73
2022/05/06 00:16:03;;;;;;;4.77;3.20;;;;;;;;;;5033570;28;20555;-73
2022/05/06 00:18:32;;;;;;;4.80;3.40;;;;;;;;;;5031019;28;20223;-73
2022/05/06 00:21:02;;;;;;;5.30;3.80;;;;;;;;;;5033229;28;20277;-73
2022/05/06 00:23:30;;;;;;;6.43;3.33;;;;;;;;;;5032400;28;20211;-73
2022/05/06 00:25:59;;;;;;;5.53;3.80;;;;;;;;;;5021193;28;20204;-72
2022/05/06 00:28:27;;;;;;;6.00;3.90;;;;;;;;;;5027582;28;20216;-72
2022/05/06 00:30:56;;;;;;;5.57;3.87;;;;;;;;;;5033061;28;20210;-73
2022/05/06 00:33:24;;;;;;;4.00;3.60;;;;;;;;;;5031350;28;20293;-72
2022/05/06 00:35:54;;;;;;;7.03;3.80;;;;;;;;;;5033312;28;20208;-73
2022/05/06 00:38:24;;;;;;;6.40;3.60;;;;;;;;;;5029855;28;20243;-73
2022/05/06 00:40:52;;;;;;;5.67;3.70;;;;;;;;;;5032557;28;20236;-73
2022/05/06 00:43:21;;;;;;;4.27;3.57;;;;;;;;;;5031343;28;20216;-73
2022/05/06 00:45:52;;;;;;;4.83;3.60;;;;;;;;;;5032894;28;20208;-72
2022/05/06 00:48:22;;;;;;;4.87;3.70;;;;;;;;;;5031691;28;20227;-73
2022/05/06 00:50:51;;;;;;;4.07;3.37;;;;;;;;;;5032808;28;20257;-72
2022/05/06 00:53:20;;;;;;;4.20;3.80;;;;;;;;;;5031616;28;20200;-72
2022/05/06 00:55:51;;;;;;;5.03;3.67;;;;;;;;;;5032285;28;20338;-72
2022/05/06 00:58:20;;;;;;;3.70;3.40;;;;;;;;;;5032473;28;20234;-72
2022/05/06 01:00:49;;;;;;;5.00;3.70;;;;;;;;;;5033470;28;20204;-72
2022/05/06 01:03:17;;;;;;;4.10;3.47;;;;;;;;;;5032207;28;20199;-72
2022/05/06 01:05:46;;;;;;;4.97;3.43;;;;;;;;;;5032247;28;20204;-72
2022/05/06 01:08:14;;;;;;;3.57;3.27;;;;;;;;;;5032737;28;20219;-73
2022/05/06 01:10:43;;;;;;;4.00;3.60;;;;;;;;;;5031465;28;20613;-73
2022/05/06 01:13:13;;;;;;;4.60;3.30;;;;;;;;;;5031778;28;20272;-73
2022/05/06 01:15:41;;;;;;;4.23;3.77;;;;;;;;;;5031740;28;20204;-73
2022/05/06 01:18:12;;;;;;;5.30;3.60;;;;;;;;;;5032066;28;20228;-72
2022/05/06 01:20:44;;;;;;;3.67;3.37;;;;;;;;;;5032369;28;20204;-72
2022/05/06 01:23:13;;;;;;;3.97;3.40;;;;;;;;;;5031840;28;20254;-73
2022/05/06 01:25:43;;;;;;;6.53;3.67;;;;;;;;;;5023942;28;20721;-73
2022/05/06 01:28:14;;;;;;;4.63;3.97;;;;;;;;;;5030706;28;20294;-73
2022/05/06 01:30:43;;;;;;;4.53;4.13;;;;;;;;;;5031955;28;20205;-73
2022/05/06 01:33:14;;;;;;;5.33;4.20;;;;;;;;;;5031161;28;20219;-73
2022/05/06 01:35:44;;;;;;;4.90;3.83;;;;;;;;;;5031959;28;20207;-73
2022/05/06 01:38:18;;;;;;;4.00;3.60;;;;;;;;;;5032258;28;20235;-72
2022/05/06 01:40:48;;;;;;;4.30;3.27;;;;;;;;;;5032209;28;20671;-72
2022/05/06 01:43:18;;;;;;;5.17;3.53;;;;;;;;;;5032347;28;20208;-72
2022/05/06 01:45:49;;;;;;;5.33;4.10;;;;;;;;;;5033828;28;20218;-73
2022/05/06 01:48:19;;;;;;;4.27;3.57;;;;;;;;;;5031785;28;20216;-72
2022/05/06 01:50:49;;;;;;;5.60;3.27;;;;;;;;;;5034738;28;20659;-73
2022/05/06 01:53:19;;;;;;;3.77;3.47;;;;;;;;;;5035820;28;20210;-72
2022/05/06 01:55:47;;;;;;;3.93;3.53;;;;;;;;;;5035572;28;20203;-72
2022/05/06 01:58:16;;;;;;;3.83;3.33;;;;;;;;;;5034271;28;20280;-72
2022/05/06 02:00:45;;;;;;;5.53;3.80;;;;;;;;;;5034359;28;20209;-72
2022/05/06 02:05:55;;;;;;;4.80;3.67;;;;;;;;;;5033664;28;20638;-73
2022/05/06 02:08:26;;;;;;;4.97;3.97;;;;;;;;;;5034636;28;20292;-72
2022/05/06 02:10:54;;;;;;;4.20;3.80;;;;;;;;;;5035984;28;20667;-73
2022/05/06 02:13:22;;;;;;;5.87;4.13;;;;;;;;;;5034614;28;20203;-73
2022/05/06 02:15:51;;;;;;;5.47;4.50;;;;;;;;;;5019979;28;20594;-72
2022/05/06 02:18:19;;;;;;;4.67;4.27;;;;;;;;;;5030897;28;21157;-73
2022/05/06 02:20:48;;;;;;;4.30;3.80;;;;;;;;;;5071752;22;20638;-73
2022/05/06 02:23:18;;;;;;;4.27;3.87;;;;;;;;;;5035579;28;20211;-72
2022/05/06 02:25:48;;;;;;;4.50;4.10;;;;;;;;;;5045985;28;20588;-73
2022/05/06 02:28:16;;;;;;;4.87;3.60;;;;;;;;;;5034691;28;20621;-73
2022/05/06 02:33:31;;;;;;;7.07;4.70;;;;;;;;;;5055363;28;20261;-72
2022/05/06 02:36:00;;;;;;;4.47;4.07;;;;;;;;;;5038125;28;20208;-72
2022/05/06 02:38:29;;;;;;;4.73;3.90;;;;;;;;;;5034998;28;20228;-72
2022/05/06 02:40:59;;;;;;;3.80;3.50;;;;;;;;;;5034218;28;20208;-72
2022/05/06 02:43:27;;;;;;;4.30;3.80;;;;;;;;;;5034303;28;20652;-72
2022/05/06 02:45:56;;;;;;;4.40;4.00;;;;;;;;;;5038545;28;20673;-72
2022/05/06 02:48:24;;;;;;;4.17;3.77;;;;;;;;;;5055263;28;20266;-72
2022/05/06 02:50:53;;;;;;;4.40;4.00;;;;;;;;;;5034400;28;20215;-73
2022/05/06 02:53:22;;;;;;;5.87;4.07;;;;;;;;;;5034851;28;20698;-72
2022/05/06 02:55:50;;;;;;;5.47;4.23;;;;;;;;;;5033174;28;20853;-72
2022/05/06 02:58:20;;;;;;;4.77;4.27;;;;;;;;;;5034949;28;20229;-73
2022/05/06 03:00:48;;;;;;;5.37;4.30;;;;;;;;;;5037277;28;20245;-72
2022/05/06 03:03:17;;;;;;;4.67;4.23;;;;;;;;;;5050475;28;20203;-72
2022/05/06 03:05:46;;;;;;;6.50;4.43;;;;;;;;;;5032468;28;20204;-72
2022/05/06 03:08:14;;;;;;;6.17;4.33;;;;;;;;;;5034994;28;20224;-72
2022/05/06 03:10:43;;;;;;;5.27;4.30;;;;;;;;;;5042251;28;20707;-72
2022/05/06 03:13:11;;;;;;;5.53;4.30;;;;;;;;;;5034187;28;20212;-72
2022/05/06 03:15:42;;;;;;;6.97;4.53;;;;;;;;;;5032571;28;20717;-72
2022/05/06 03:18:11;;;;;;;5.33;4.70;;;;;;;;;;5033269;28;20686;-72
2022/05/06 03:20:40;;;;;;;6.17;4.43;;;;;;;;;;5034520;28;20215;-72
2022/05/06 03:23:08;;;;;;;5.63;4.60;;;;;;;;;;5037527;28;20211;-73
2022/05/06 03:25:37;;;;;;;5.33;4.70;;;;;;;;;;5022193;28;20200;-72
2022/05/06 03:28:08;;;;;;;5.03;4.53;;;;;;;;;;5033759;28;20224;-72
2022/05/06 03:30:39;;;;;;;5.90;4.63;;;;;;;;;;5036578;28;20226;-72
2022/05/06 03:33:09;;;;;;;6.63;4.50;;;;;;;;;;5050687;28;20230;-72
2022/05/06 03:35:38;;;;;;;5.10;4.20;;;;;;;;;;5020988;28;20215;-72
2022/05/06 03:38:07;;;;;;;5.57;4.87;;;;;;;;;;5054016;28;20565;-73
2022/05/06 03:40:36;;;;;;;5.40;4.20;;;;;;;;;;5044908;28;20227;-72
2022/05/06 03:43:04;;;;;;;6.57;4.87;;;;;;;;;;5033184;28;20262;-72
2022/05/06 03:45:33;;;;;;;5.23;4.13;;;;;;;;;;5034163;28;20211;-73
2022/05/06 03:48:01;;;;;;;4.20;3.80;;;;;;;;;;5033755;28;20227;-72
2022/05/06 03:53:17;;;;;;;4.63;4.17;;;;;;;;;;5032230;28;20257;-73
2022/05/06 03:55:45;;;;;;;4.73;4.07;;;;;;;;;;5052675;28;20709;-72
2022/05/06 03:58:14;;;;;;;5.47;4.00;;;;;;;;;;5051676;28;20640;-73
2022/05/06 04:00:42;;;;;;;4.20;3.80;;;;;;;;;;5037659;28;20242;-72
2022/05/06 04:03:11;;;;;;;5.13;4.00;;;;;;;;;;5047762;28;20223;-73
2022/05/06 04:05:41;;;;;;;5.20;4.10;;;;;;;;;;5036187;28;20210;-72
2022/05/06 04:08:10;;;;;;;4.97;4.43;;;;;;;;;;5048231;28;20219;-72
2022/05/06 04:10:38;;;;;;;5.00;4.03;;;;;;;;;;5017023;28;20201;-72
2022/05/06 04:13:07;;;;;;;7.80;4.53;;;;;;;;;;5032154;28;20235;-73
2022/05/06 04:15:36;;;;;;;5.47;4.67;;;;;;;;;;5034195;28;20204;-73
2022/05/06 04:18:04;;;;;;;5.53;4.47;;;;;;;;;;5038708;28;20643;-73
2022/05/06 04:23:30;;;;;;;4.57;4.13;;;;;;;;;;5028279;28;20232;-73
2022/05/06 04:25:59;;;;;;;4.60;4.20;;;;;;;;;;5033291;28;20274;-73
2022/05/06 04:28:28;;;;;;;5.83;4.23;;;;;;;;;;5029747;28;20216;-73
2022/05/06 04:30:57;;;;;;;7.33;4.27;;;;;;;;;;5033380;28;20207;-73
2022/05/06 04:33:26;;;;;;;6.57;4.50;;;;;;;;;;5032119;28;20750;-73
2022/05/06 04:35:54;;;;;;;6.50;4.70;;;;;;;;;;5032767;28;20257;-73
2022/05/06 04:38:25;;;;;;;6.03;4.73;;;;;;;;;;5030614;28;20293;-73
2022/05/06 04:40:55;;;;;;;6.37;5.03;;;;;;;;;;5028589;28;20211;-72
2022/05/06 04:43:23;;;;;;;5.97;4.60;;;;;;;;;;5024339;28;20614;-72
2022/05/06 04:45:55;;;;;;;5.73;4.50;;;;;;;;;;5032477;28;20211;-72
2022/05/06 04:48:24;;;;;;;5.70;5.10;;;;;;;;;;5031817;28;20219;-72
2022/05/06 04:50:53;;;;;;;6.77;4.93;;;;;;;;;;5027594;28;20596;-73
2022/05/06 04:53:21;;;;;;;6.60;5.10;;;;;;;;;;5031919;28;20199;-72
2022/05/06 04:55:51;;;;;;;6.13;4.90;;;;;;;;;;5032481;28;20230;-72
2022/05/06 04:58:20;;;;;;;6.83;4.83;;;;;;;;;;5030574;28;20849;-72
2022/05/06 05:00:51;;;;;;;5.50;5.00;;;;;;;;;;5033380;28;20354;-73
2022/05/06 05:03:21;;;;;;;8.37;5.60;;;;;;;;;;5032303;28;20227;-72
2022/05/06 05:05:50;;;;;;;6.67;5.97;;;;;;;;;;5028118;28;20346;-73
2022/05/06 05:08:18;;;;;;;9.37;5.80;;;;;;;;;;5027167;28;20243;-73
2022/05/06 05:10:46;;;;;;;8.17;6.27;;;;;;;;;;5032408;28;20261;-73
2022/05/06 05:13:16;;;;;;;8.40;6.30;;;;;;;;;;5030177;28;20204;-72
2022/05/06 05:15:45;;;;;;;8.00;6.27;;;;;;;;;;5032307;28;20271;-73
2022/05/06 05:18:13;;;;;;;9.40;6.80;;;;;;;;;;5033606;28;20220;-73
2022/05/06 05:20:42;;;;;;;8.53;6.83;;;;;;;;;;5033046;28;20695;-72
2022/05/06 05:23:10;;;;;;;7.83;6.73;;;;;;;;;;5036972;28;20219;-72
2022/05/06 05:25:38;;;;;;;7.20;6.53;;;;;;;;;;5028039;28;20583;-72
2022/05/06 05:28:07;;;;;;;7.40;6.70;;;;;;;;;;5034331;28;20228;-73
2022/05/06 05:30:37;;;;;;;8.23;6.77;;;;;;;;;;5036484;28;20202;-73
2022/05/06 05:33:05;;;;;;;10.07;6.53;;;;;;;;;;5036441;28;20270;-73
2022/05/06 05:35:34;;;;;;;7.10;6.23;;;;;;;;;;5036653;28;20207;-72
2022/05/06 05:38:03;;;;;;;7.33;6.23;;;;;;;;;;5035983;28;20224;-72
2022/05/06 05:40:31;;;;;;;7.03;6.23;;;;;;;;;;5032313;28;20303;-73
2022/05/06 05:42:59;;;;;;;6.80;5.60;;;;;;;;;;5035032;28;20205;-73
2022/05/06 05:48:22;;;;;;;7.83;6.37;;;;;;;;;;5035093;28;20270;-73
2022/05/06 05:50:51;;;;;;;7.70;6.60;;;;;;;;;;5035938;28;20207;-73
2022/05/06 05:53:21;;;;;;;6.60;5.87;;;;;;;;;;5034137;28;20207;-72
2022/05/06 05:55:49;;;;;;;7.60;6.23;;;;;;;;;;5035957;28;20214;-73
2022/05/06 05:58:17;;;;;;;6.33;5.73;;;;;;;;;;5034838;28;20230;-73
2022/05/06 06:00:46;;;;;;;6.40;5.50;;;;;;;;;;5035799;28;20232;-73
2022/05/06 06:03:16;;;;;;;9.33;6.57;;;;;;;;;;5035998;28;20208;-72
2022/05/06 06:05:45;;;;;;;10.27;6.73;;;;;;;;;;5036137;28;20204;-73
2022/05/06 06:08:13;;;;;;;6.53;5.87;;;;;;;;;;5035394;28;20229;-73
2022/05/06 06:10:42;;;;;;;6.83;6.13;;;;;;;;;;5036035;28;20654;-73
2022/05/06 06:13:10;;;;;;;6.77;6.07;;;;;;;;;;5036015;28;20207;-72
2022/05/06 06:15:38;;;;;;;7.90;5.70;;;;;;;;;;5035135;28;20261;-73
2022/05/06 06:18:08;;;;;;;6.63;5.87;;;;;;;;;;5035882;28;20224;-73
2022/05/06 06:20:38;;;;;;;7.37;5.50;;;;;;;;;;5036106;28;20238;-72
2022/05/06 06:23:06;;;;;;;6.60;5.63;;;;;;;;;;5035858;28;20211;-73
2022/05/06 06:25:35;;;;;;;6.07;5.50;;;;;;;;;;5034613;28;20273;-73
2022/05/06 06:28:03;;;;;;;7.13;5.40;;;;;;;;;;5035766;28;20297;-72
2022/05/06 06:30:32;;;;;;;6.57;5.90;;;;;;;;;;5033477;28;20204;-72
2022/05/06 06:33:00;;;;;;;6.57;5.47;;;;;;;;;;5035399;28;20204;-73
2022/05/06 06:35:29;;;;;;;7.20;5.73;;;;;;;;;;5035668;28;20204;-72
2022/05/06 06:38:00;;;;;;;6.80;5.90;;;;;;;;;;5035165;28;20706;-73
2022/05/06 06:40:28;;;;;;;5.47;5.07;;;;;;;;;;5035013;28;20212;-72
2022/05/06 06:43:01;;;;;;;6.83;5.83;;;;;;;;;;5034717;28;20211;-73
2022/05/06 06:45:30;;;;;;;5.60;5.10;;;;;;;;;;5035411;28;20273;-73
2022/05/06 06:47:59;;;;;;;8.23;5.20;;;;;;;;;;5035285;28;20227;-73
2022/05/06 06:50:27;;;;;;;5.17;4.67;;;;;;;;;;5035447;28;20263;-73
2022/05/06 06:52:56;;;;;;;6.83;5.40;;;;;;;;;;5033861;28;20208;-72
2022/05/06 06:55:31;;;;;;;5.37;4.90;;;;;;;;;;5035050;28;20208;-72
2022/05/06 06:57:59;;;;;;;6.17;4.70;;;;;;;;;;5035250;28;20231;-73
2022/05/06 07:00:27;;;;;;;5.03;4.63;;;;;;;;;;5035001;28;20207;-72
2022/05/06 07:02:57;;;;;;;7.33;4.87;;;;;;;;;;5034441;28;20566;-73
2022/05/06 07:05:25;;;;;;;5.47;4.97;;;;;;;;;;5035132;28;20212;-72
2022/05/06 07:13:47;;;;;;;5.63;4.50;;;;;;;;;;5034589;28;20195;-73
2022/05/06 07:16:16;;;;;;;4.60;4.10;;;;;;;;;;5034793;28;20451;-73
2022/05/06 07:18:44;;;;;;;6.23;4.43;;;;;;;;;;5034744;28;20602;-73
2022/05/06 07:21:13;;;;;;;7.00;4.23;;;;;;;;;;5034117;28;20228;-73
2022/05/06 07:23:41;;;;;;;8.53;4.40;;;;;;;;;;5034745;28;20200;-72
2022/05/06 07:26:12;;;;;;;7.37;4.23;;;;;;;;;;5035497;28;20208;-73
2022/05/06 07:28:41;;;;;;;5.10;4.00;;;;;;;;;;5033568;28;20228;-72
2022/05/06 07:31:09;;;;;;;5.57;4.10;;;;;;;;;;5033149;28;20196;-73
2022/05/06 07:33:38;;;;;;;7.72;4.10;;;;;;;;;;5024025;28;20230;-73
2022/05/06 07:36:07;;;;;;;4.83;3.60;;;;;;;;;;5034190;28;20218;-73
2022/05/06 07:38:35;;;;;;;7.43;3.75;;;;;;;;;;5033337;28;20787;-72
2022/05/06 07:41:04;;;;;;;6.70;3.92;;;;;;;;;;5034696;28;20224;-73
2022/05/06 07:43:34;;;;;;;6.20;3.50;;;;;;;;;;5033357;28;20208;-72
2022/05/06 07:46:02;;;;;;;6.05;4.25;;;;;;;;;;5033199;28;20584;-72
2022/05/06 07:48:31;;;;;;;6.15;3.63;;;;;;;;;;5032373;28;20623;-72
2022/05/06 07:51:05;;;;;;;3.80;3.38;;;;;;;;;;5033565;28;20196;-72
2022/05/06 07:53:33;;;;;;;3.85;3.45;;;;;;;;;;5033947;28;20203;-72
2022/05/06 07:56:02;;;;;;;5.15;3.58;;;;;;;;;;5034070;28;20211;-72
2022/05/06 07:58:31;;;;;;;4.32;3.88;;;;;;;;;;5032698;28;20698;-72
2022/05/06 08:01:00;;;;;;;5.18;3.70;;;;;;;;;;5034066;28;20204;-72
2022/05/06 08:06:15;;;;;;;4.82;4.32;;;;;;;;;;5033343;28;20239;-73
2022/05/06 08:08:43;;;;;;;5.35;4.28;;;;;;;;;;5033594;28;20265;-73
2022/05/06 08:11:12;;;;;;;4.20;3.80;;;;;;;;;;5033725;28;20204;-72
2022/05/06 08:13:40;;;;;;;4.28;3.78;;;;;;;;;;5033764;28;20261;-72
2022/05/06 08:16:10;;;;;;;5.95;3.20;;;;;;;;;;5033079;28;20287;-72
2022/05/06 08:18:39;;;;;;;4.65;3.70;;;;;;;;;;5033370;28;20306;-73
2022/05/06 08:21:07;;;;;;;4.90;3.55;;;;;;;;;;5031904;28;20220;-73
2022/05/06 08:23:36;;;;;;;6.63;3.90;;;;;;;;;;5033190;28;20200;-73
2022/05/06 08:26:05;;;;;;;5.75;3.50;;;;;;;;;;5032021;28;20265;-72
2022/05/06 08:28:34;;;;;;;4.55;3.78;;;;;;;;;;5032467;28;20698;-72
2022/05/06 08:31:02;;;;;;;6.55;3.85;;;;;;;;;;5031023;28;20554;-72
2022/05/06 08:33:32;;;;;;;4.32;3.60;;;;;;;;;;5030986;28;20795;-72
2022/05/06 08:36:03;;;;;;;4.18;3.65;;;;;;;;;;5032359;28;20273;-72
2022/05/06 08:38:32;;;;;;;5.93;3.80;;;;;;;;;;5020593;28;20229;-72
2022/05/06 08:41:01;;;;;;;5.63;3.88;;;;;;;;;;5024766;28;20204;-74
2022/05/06 08:43:29;;;;;;;3.72;3.33;;;;;;;;;;5030859;28;20257;-73
2022/05/06 08:51:37;;;;;;;5.35;3.53;;;;;;;;;;5032844;28;20250;-72
2022/05/06 08:54:06;;;;;;;5.78;3.85;;;;;;;;;;5032220;28;20238;-72
2022/05/06 08:56:34;;;;;;;5.55;4.47;;;;;;;;;;5032810;28;20674;-72
2022/05/06 08:59:02;;;;;;;6.22;4.15;;;;;;;;;;5033628;28;20200;-73
2022/05/06 09:01:31;;;;;;;5.78;3.92;;;;;;;;;;5031899;28;20281;-72
2022/05/06 09:04:01;;;;;;;6.35;3.90;;;;;;;;;;5031992;28;20673;-73
2022/05/06 09:06:31;;;;;;;5.88;4.10;;;;;;;;;;5032537;28;20216;-72
2022/05/06 09:09:00;;;;;;;5.43;4.35;;;;;;;;;;5032596;28;20250;-72
2022/05/06 09:14:15;;;;;;;5.65;4.45;;;;;;;;;;4999831;28;20254;-72
2022/05/06 09:16:44;;;;;;;7.38;5.25;;;;;;;;;;5032929;28;20211;-72
2022/05/06 09:19:15;;;;;;;6.95;4.60;;;;;;;;;;5033325;28;20196;-72
2022/05/06 09:21:59;;;;;;;5.97;4.63;;;;;;;;;;5030975;28;20230;-73
2022/05/06 09:24:28;;;;;;;5.63;5.07;;;;;;;;;;5031547;28;20215;-72
2022/05/06 09:26:57;;;;;;;7.88;4.80;;;;;;;;;;5032525;28;20265;-72
2022/05/06 09:29:29;;;;;;;8.85;4.70;;;;;;;;;;5032414;28;20291;-73
2022/05/06 09:32:13;;;;;;;7.32;4.60;;;;;;;;;;5032091;28;20609;-73
2022/05/06 09:34:42;;;;;;;10.73;5.30;;;;;;;;;;5031824;28;20237;-74
2022/05/06 09:37:11;;;;;;;8.55;4.97;;;;;;;;;;5032776;28;20564;-73
2022/05/06 09:39:40;;;;;;;7.07;5.32;;;;;;;;;;5032470;28;20608;-73
2022/05/06 09:42:08;;;;;;;6.70;4.90;;;;;;;;;;5032293;28;20235;-73
2022/05/06 09:44:37;;;;;;;9.52;4.75;;;;;;;;;;5032470;28;20236;-73
2022/05/06 09:47:10;;;;;;;6.35;5.10;;;;;;;;;;5032523;28;20226;-73
2022/05/06 09:49:40;;;;;;;6.25;4.97;;;;;;;;;;5031954;28;20300;-74
2022/05/06 09:52:14;;;;;;;7.97;5.32;;;;;;;;;;5031526;28;20204;-74
2022/05/06 09:54:43;;;;;;;8.15;5.35;;;;;;;;;;5033097;28;20204;-74
2022/05/06 09:57:12;;;;;;;18.95;6.70;;;;;;;;;;5033592;28;20706;-74
2022/05/06 09:59:41;;;;;;;9.43;5.60;;;;;;;;;;5032138;28;20204;-74
2022/05/06 10:02:10;;;;;;;7.35;5.45;;;;;;;;;;5031103;28;20223;-75
2022/05/06 10:04:39;;;;;;;7.80;5.55;;;;;;;;;;5032520;28;20286;-74
2022/05/06 10:07:08;;;;;;;6.05;5.25;;;;;;;;;;5035752;28;20399;-74
2022/05/06 10:09:40;;;;;;;6.45;5.00;;;;;;;;;;5035722;28;20204;-74
2022/05/06 10:12:10;;;;;;;9.65;6.28;;;;;;;;;;5035268;28;20261;-74
2022/05/06 10:14:41;;;;;;;9.05;5.95;;;;;;;;;;5035782;28;20736;-74
2022/05/06 10:17:09;;;;;;;8.07;6.10;;;;;;;;;;5036175;28;20262;-74
2022/05/06 10:19:47;;;;;;;8.07;5.97;;;;;;;;;;5035348;28;20200;-74
2022/05/06 10:22:15;;;;;;;7.05;5.70;;;;;;;;;;5034210;28;20230;-75
2022/05/06 10:24:49;;;;;;;7.07;6.25;;;;;;;;;;5035613;28;20211;-74
2022/05/06 10:32:25;;;;;;;7.13;6.10;;;;;;;;;;5035491;28;20227;-74
2022/05/06 10:33:14;;;;;;;8.80;6.40;;;;;;;;;;5035408;28;20258;-74
2022/05/06 10:35:43;;;;;;;8.98;6.32;;;;;;;;;;5035572;28;20200;-75
2022/05/06 10:38:22;;;;;;;7.53;6.28;;;;;;;;;;5035299;28;20227;-75
2022/05/06 10:40:58;;;;;;;7.60;5.97;;;;;;;;;;5034552;28;20228;-75
2022/05/06 10:46:40;;;;;;;6.97;6.05;;;;;;;;;;5035368;28;20602;-74
2022/05/06 10:49:27;;;;;;;8.13;5.35;;;;;;;;;;5035353;28;20253;-74
2022/05/06 10:52:15;;;;;;;8.85;5.43;;;;;;;;;;5034756;28;20258;-74
2022/05/06 10:54:47;;;;;;;5.72;4.97;;;;;;;;;;5036496;28;20212;-74
2022/05/06 10:57:17;;;;;;;7.63;4.97;;;;;;;;;;5035326;28;20230;-74
2022/05/06 10:59:49;;;;;;;7.60;6.07;;;;;;;;;;5035071;28;20611;-74
2022/05/06 11:02:17;;;;;;;8.82;5.10;;;;;;;;;;5019709;28;20624;-74
2022/05/06 11:04:58;;;;;;;7.80;5.60;;;;;;;;;;5014785;28;20204;-74
2022/05/06 11:07:32;;;;;;;6.07;5.00;;;;;;;;;;5014739;28;20586;-74
2022/05/06 11:10:01;;;;;;;7.50;5.20;;;;;;;;;;5015190;28;20204;-74
2022/05/06 11:12:31;;;;;;;6.32;5.72;;;;;;;;;;5032998;28;20698;-74
2022/05/06 11:14:59;;;;;;;9.10;5.18;;;;;;;;;;5034537;28;20211;-75
2022/05/06 11:17:28;;;;;;;5.47;4.95;;;;;;;;;;5034584;28;20223;-74
2022/05/06 11:19:57;;;;;;;8.10;6.20;;;;;;;;;;5034529;28;20223;-74
2022/05/06 11:22:25;;;;;;;7.10;6.45;;;;;;;;;;5029024;28;20330;-75
2022/05/06 11:24:56;;;;;;;6.07;5.30;;;;;;;;;;5030796;28;20211;-73
2022/05/06 11:27:26;;;;;;;6.78;5.13;;;;;;;;;;5028655;28;20376;-74
2022/05/06 11:29:57;;;;;;;5.97;5.10;;;;;;;;;;5034020;28;20204;-74
2022/05/06 11:32:26;;;;;;;5.82;4.93;;;;;;;;;;5015026;28;20529;-74
2022/05/06 11:34:56;;;;;;;5.68;4.65;;;;;;;;;;5021546;28;20558;-74
2022/05/06 11:37:26;;;;;;;6.72;4.60;;;;;;;;;;5032679;28;20272;-74
2022/05/06 11:40:18;;;;;;;6.78;4.63;;;;;;;;;;5031682;28;20215;-75
2022/05/06 11:42:44;;;;;;;5.70;5.03;;;;;;;;;;5030661;28;20215;-74
2022/05/06 11:48:05;;;;;;;6.32;5.20;;;;;;;;;;5021111;28;20219;-75
2022/05/06 11:50:33;;;;;;;8.18;4.80;;;;;;;;;;5031597;28;20203;-74
2022/05/06 11:53:04;;;;;;;6.07;4.40;;;;;;;;;;5033165;28;20198;-74
2022/05/06 11:55:32;;;;;;;5.32;4.22;;;;;;;;;;5033011;28;20211;-74
2022/05/06 11:58:01;;;;;;;6.80;4.75;;;;;;;;;;5033454;28;20224;-74
2022/05/06 12:00:31;;;;;;;4.50;4.10;;;;;;;;;;5031414;28;20208;-75
2022/05/06 12:03:04;;;;;;;5.97;4.15;;;;;;;;;;5032012;28;20258;-74
2022/05/06 12:05:32;;;;;;;5.07;4.22;;;;;;;;;;5033286;28;20648;-74
2022/05/06 12:08:01;;;;;;;5.28;4.13;;;;;;;;;;5033459;28;20232;-74
2022/05/06 12:10:29;;;;;;;4.32;3.92;;;;;;;;;;5030000;28;20208;-75
2022/05/06 12:12:59;;;;;;;7.47;4.65;;;;;;;;;;5031794;28;20581;-75
2022/05/06 12:15:32;;;;;;;6.28;4.30;;;;;;;;;;5033763;28;20277;-74
2022/05/06 12:18:05;;;;;;;4.72;3.70;;;;;;;;;;5033533;28;20231;-74
2022/05/06 12:20:34;;;;;;;7.82;4.65;;;;;;;;;;5028496;28;20216;-74
2022/05/06 12:23:04;;;;;;;7.50;4.90;;;;;;;;;;5021632;28;20207;-74
2022/05/06 12:25:35;;;;;;;5.30;4.53;;;;;;;;;;5032267;28;20207;-74
2022/05/06 12:28:07;;;;;;;5.20;4.28;;;;;;;;;;5031471;28;20698;-74
2022/05/06 12:30:37;;;;;;;5.13;4.47;;;;;;;;;;5029928;28;20204;-74
2022/05/06 12:33:09;;;;;;;5.55;4.53;;;;;;;;;;5033147;28;20207;-74
2022/05/06 12:36:02;;;;;;;6.13;4.80;;;;;;;;;;5033307;28;20294;-73
2022/05/06 12:38:45;;;;;;;5.60;4.70;;;;;;;;;;5018328;28;20247;-73
2022/05/06 12:41:18;;;;;;;6.43;5.20;;;;;;;;;;5031224;28;20212;-74
2022/05/06 12:43:46;;;;;;;5.65;4.82;;;;;;;;;;5032614;28;20223;-74
2022/05/06 12:46:27;;;;;;;6.30;5.20;;;;;;;;;;5032850;28;20200;-75
2022/05/06 12:51:44;;;;;;;10.35;5.88;;;;;;;;;;5031735;28;20306;-74
2022/05/06 12:54:12;;;;;;;5.80;5.18;;;;;;;;;;5031728;28;20200;-75
2022/05/06 12:56:41;;;;;;;6.57;5.18;;;;;;;;;;5033679;28;20662;-75
2022/05/06 12:59:10;;;;;;;5.93;5.30;;;;;;;;;;5028347;28;20207;-74
2022/05/06 13:01:39;;;;;;;7.50;4.82;;;;;;;;;;5032655;28;20262;-74
2022/05/06 13:04:08;;;;;;;8.50;4.75;;;;;;;;;;5032818;28;20638;-74
2022/05/06 13:06:36;;;;;;;7.63;5.07;;;;;;;;;;5031112;28;20588;-75
2022/05/06 13:09:05;;;;;;;5.43;4.93;;;;;;;;;;5031817;28;20199;-74
2022/05/06 13:11:33;;;;;;;9.00;5.72;;;;;;;;;;5032609;28;20219;-74
2022/05/06 13:14:02;;;;;;;7.20;5.93;;;;;;;;;;5030288;28;20195;-74
2022/05/06 13:16:31;;;;;;;5.53;4.75;;;;;;;;;;5029526;28;20215;-75
2022/05/06 13:19:01;;;;;;;7.70;4.80;;;;;;;;;;5030860;28;20239;-73
2022/05/06 13:21:30;;;;;;;7.57;4.40;;;;;;;;;;5027458;28;20572;-74
2022/05/06 13:23:59;;;;;;;5.22;4.20;;;;;;;;;;5030880;28;20593;-75
2022/05/06 13:26:28;;;;;;;5.93;4.13;;;;;;;;;;5032328;28;20254;-74
2022/05/06 13:28:56;;;;;;;6.00;4.88;;;;;;;;;;5032873;28;20216;-74
2022/05/06 13:31:25;;;;;;;5.75;4.28;;;;;;;;;;5082616;23;20318;-74
2022/05/06 13:33:54;;;;;;;6.28;4.90;;;;;;;;;;5049186;28;20192;-74
2022/05/06 13:36:24;;;;;;;6.45;4.88;;;;;;;;;;5050985;28;20203;-75
2022/05/06 13:38:53;;;;;;;5.57;4.72;;;;;;;;;;5034662;28;20643;-75
2022/05/06 13:41:23;;;;;;;5.18;4.68;;;;;;;;;;5036818;28;20208;-75
2022/05/06 13:43:52;;;;;;;5.60;4.57;;;;;;;;;;5036331;28;20204;-75
2022/05/06 13:46:20;;;;;;;7.18;4.97;;;;;;;;;;5032730;28;20196;-75
2022/05/06 13:48:49;;;;;;;5.72;4.70;;;;;;;;;;5035920;28;20228;-75
2022/05/06 13:51:18;;;;;;;5.15;4.15;;;;;;;;;;5035646;28;20588;-74
2022/05/06 13:53:48;;;;;;;6.63;5.28;;;;;;;;;;5036236;28;20204;-74
2022/05/06 13:59:06;;;;;;;6.07;5.22;;;;;;;;;;5032908;28;20204;-75
2022/05/06 14:01:35;;;;;;;6.63;5.00;;;;;;;;;;5029451;28;20671;-74
2022/05/06 14:04:04;;;;;;;6.38;5.20;;;;;;;;;;5033144;28;20218;-75
2022/05/06 14:06:33;;;;;;;8.00;5.10;;;;;;;;;;5033213;28;20290;-74
2022/05/06 14:09:03;;;;;;;6.93;5.50;;;;;;;;;;5035491;28;20220;-74
2022/05/06 14:11:32;;;;;;;6.32;5.57;;;;;;;;;;5033168;28;20215;-75
2022/05/06 14:14:01;;;;;;;6.07;4.55;;;;;;;;;;5033922;28;20219;-75
2022/05/06 14:16:30;;;;;;;5.65;4.65;;;;;;;;;;5042086;28;20655;-74
2022/05/06 14:18:59;;;;;;;4.97;4.47;;;;;;;;;;5020937;28;20241;-74
2022/05/06 14:21:29;;;;;;;5.78;4.35;;;;;;;;;;5032685;28;20210;-74
2022/05/06 14:23:57;;;;;;;5.03;4.50;;;;;;;;;;5031713;28;20296;-74
2022/05/06 14:26:27;;;;;;;6.25;4.45;;;;;;;;;;5029760;28;20235;-75
2022/05/06 14:28:56;;;;;;;5.80;4.28;;;;;;;;;;5030816;28;20857;-74
2022/05/06 14:31:24;;;;;;;5.95;4.70;;;;;;;;;;5029844;28;20670;-75
2022/05/06 14:33:55;;;;;;;4.80;4.30;;;;;;;;;;5031531;28;20203;-75
2022/05/06 14:36:24;;;;;;;7.78;4.50;;;;;;;;;;5035674;28;20199;-75
2022/05/06 14:38:52;;;;;;;6.05;4.00;;;;;;;;;;5033831;28;20662;-75
2022/05/06 14:41:21;;;;;;;5.50;4.40;;;;;;;;;;5028812;28;20253;-76
2022/05/06 14:43:51;;;;;;;4.60;4.13;;;;;;;;;;5034324;28;20282;-75
2022/05/06 14:46:21;;;;;;;5.97;4.50;;;;;;;;;;5033211;28;20220;-75
2022/05/06 14:48:49;;;;;;;5.43;4.93;;;;;;;;;;5035269;28;20223;-74
2022/05/06 14:51:24;;;;;;;7.07;4.32;;;;;;;;;;5033521;28;20208;-75
2022/05/06 14:53:53;;;;;;;8.40;4.53;;;;;;;;;;5032808;28;20198;-75
2022/05/06 14:56:21;;;;;;;6.75;4.70;;;;;;;;;;5033002;28;20200;-75
2022/05/06 14:58:51;;;;;;;6.75;4.30;;;;;;;;;;5033594;28;20231;-75
2022/05/06 15:01:20;;;;;;;5.07;4.13;;;;;;;;;;5030650;28;20647;-74
2022/05/06 15:03:48;;;;;;;4.38;3.70;;;;;;;;;;5034369;28;20681;-74
2022/05/06 15:06:17;;;;;;;4.97;4.00;;;;;;;;;;5027497;28;20224;-75
2022/05/06 15:08:46;;;;;;;5.35;3.42;;;;;;;;;;5030615;28;20228;-75
2022/05/06 15:11:14;;;;;;;4.03;2.88;;;;;;;;;;5028798;28;20250;-75
2022/05/06 15:13:43;;;;;;;3.55;3.25;;;;;;;;;;5030444;28;20212;-74
2022/05/06 15:16:13;;;;;;;5.20;3.90;;;;;;;;;;5032664;28;20196;-74
2022/05/06 15:21:28;;;;;;;6.78;3.72;;;;;;;;;;5031576;28;22019;-75
2022/05/06 15:23:57;;;;;;;4.80;3.33;;;;;;;;;;5033483;28;20227;-75
2022/05/06 15:26:25;;;;;;;5.75;3.58;;;;;;;;;;5032957;28;20281;-74
2022/05/06 15:28:54;;;;;;;4.18;3.00;;;;;;;;;;5033325;28;20285;-74
2022/05/06 15:31:23;;;;;;;4.38;3.50;;;;;;;;;;5031351;28;20239;-75
2022/05/06 15:33:52;;;;;;;4.72;3.25;;;;;;;;;;5030988;28;20196;-75
2022/05/06 15:36:20;;;;;;;4.25;3.45;;;;;;;;;;5028643;28;20204;-74
2022/05/06 15:38:49;;;;;;;3.78;3.35;;;;;;;;;;5032850;28;20283;-74
2022/05/06 15:41:17;;;;;;;3.65;2.80;;;;;;;;;;5032757;28;20204;-74
2022/05/06 15:43:45;;;;;;;4.47;2.95;;;;;;;;;;5032610;28;20247;-74
2022/05/06 15:46:14;;;;;;;3.67;3.22;;;;;;;;;;5030957;28;20238;-75